• Join FlightAware (Why Join?)
  • Login
  • US Flag 
12:31AM EDT


 

Airport Tracker/Info


-or-


 

Live Flight TrackerFlight Track Log ✈ EJA907 ✈ 23-Jun-2013 ✈ KBDR - KCHO

Flight Track Log - Related Links

Times and Time Zones

All times are in EDT time to prevent confusion due to time zone crossing. See the EJA907 flight status page for this flight to view local times or setup timezone preferences in your user account.

Time Position Orientation Groundspeed Altitude Reporting Facility
EDT Latitude Longitude Course Direction KTS MPH feet Rate Location/Type
03:37PM 41.1500 -73.2167 237° Southwest 215 247 2,700  Level New York TRACON
03:38PM 41.2000 -73.2833 315° West 263 303 5,900 1,620 Climbing New York TRACON
03:39PM 41.2500 -73.3500 315° West 271 312 6,000  Climbing New York TRACON
03:40PM 41.2667 -73.4500 283° West 262 302 6,000 360 Level New York TRACON
03:41PM 41.2667 -73.5500 270° West 268 308 6,800 480 Climbing New York TRACON
03:42PM 40.8220 -73.9394 237° Southwest  Level FlightAware Approximate
03:42PM 41.2333 -73.6333 242° Southwest 271 312 7,000  Level New York TRACON
03:43PM 41.2000 -73.7167 242° Southwest 260 299 7,100 780 Climbing New York TRACON
03:44PM 41.1500 -73.8000 231° Southwest 262 302 8,600 1,980 Climbing New York TRACON
03:45PM 41.1167 -73.8833 242° Southwest 287 330 11,100 1,860 Climbing New York TRACON
03:46PM 41.0500 -73.9833 229° Southwest 361 415 12,400 1,980 Climbing New York TRACON
03:47PM 40.9833 -74.0833 229° Southwest 358 412 15,100 1,260 Climbing New York TRACON
03:48PM 40.9167 -74.2000 233° Southwest 413 475 15,000 540 Descending New York TRACON
03:50PM 40.7783 -74.4158 230° Southwest 443 510 16,700 660 Climbing New York Center
03:51PM 40.7014 -74.5403 231° Southwest 443 510 17,000 960 Climbing New York Center
03:52PM 40.6181 -74.6669 229° Southwest 436 502 18,700 1,740 Climbing New York Center
03:53PM 40.5522 -74.7697 230° Southwest 430 495 20,600 1,980 Climbing New York Center
03:54PM 40.4817 -74.8803 230° Southwest 418 481 22,700 1,620 Climbing New York Center
03:55PM 40.4069 -74.9931 229° Southwest 412 474 23,900 660 Climbing New York Center
03:56PM 40.3256 -75.1078 227° Southwest 422 486 24,100 840 Climbing New York Center
03:57PM 40.2442 -75.2222 227° Southwest 435 501 25,600 1,500 Climbing New York Center
03:58PM 40.1606 -75.3392 227° Southwest 435 501 27,200 1,140 Climbing New York Center
03:59PM 40.0767 -75.4586 227° Southwest 441 507 28,000 360 Climbing New York Center
04:00PM 39.9883 -75.5800 226° Southwest 451 519 28,000  Level New York Center
04:01PM 39.8997 -75.7064 228° Southwest 470 541 28,000 -660 Level New York Center
04:02PM 39.8147 -75.8411 231° Southwest 482 555 26,700 -1,680 Descending New York Center
04:03PM 39.7297 -75.9725 230° Southwest 488 562 24,700 -1,380 Descending New York Center
04:04PM 39.6489 -76.1042 231° Southwest 482 555 24,000 -360 Descending New York Center
04:05PM 39.5550 -76.2397 228° Southwest 474 545 24,000 -960 Level New York Center
04:06PM 39.4678 -76.3647 228° Southwest 474 545 22,100 -960 Descending New York Center
04:07PM 39.3789 -76.5153 233° Southwest 472 543 22,000 -60 Descending Washington Center
04:08PM 39.3028 -76.6375 231° Southwest 465 535 22,000  Level Washington Center
04:09PM 39.2333 -76.7500 231° Southwest 436 502 22,000  Level Potomac TRACON
04:10PM 39.1500 -76.8833 231° Southwest 435 501 22,000  Level Potomac TRACON
04:11PM 39.0667 -77.0000 227° Southwest 436 502 22,000  Level Potomac TRACON
04:12PM 38.9833 -77.1000 223° Southwest 448 516 22,000  Level Potomac TRACON
04:13PM 38.9000 -77.2000 223° Southwest 474 545 22,000 -660 Level Potomac TRACON
04:15PM 38.7225 -77.4144 223° Southwest 455 524 20,000 -660 Descending Washington Center
04:16PM 38.6517 -77.5375 234° Southwest 443 510 20,000 -660 Level Washington Center
04:17PM 38.5828 -77.6633 235° Southwest 443 510 18,800 -1,620 Descending Washington Center
04:18PM 38.5139 -77.7914 236° Southwest 443 510 16,900 -1,920 Descending Washington Center
04:19PM 38.4492 -77.9086 235° Southwest 435 501 14,900 -1,980 Descending Washington Center
04:20PM 38.3842 -78.0233 234° Southwest 413 475 12,900 -1,860 Descending Washington Center
04:21PM 38.3258 -78.1300 235° Southwest 395 455 11,200 -1,200 Descending Washington Center
04:22PM 38.2572 -78.2147 224° Southwest 366 421 10,600 -1,680 Descending Washington Center
04:23PM 38.1833 -78.2544 203° Southwest 297 342 8,000 -3,000 Descending Washington Center
04:24PM 38.1117 -78.2864 199° South 283 326 4,500 -2,220 Descending Washington Center
04:25PM 38.0564 -78.3369 216° Southwest 263 303 3,600 -780 Descending Washington Center
04:26PM 38.0425 -78.3919 252° West 239 275 3,000 -840 Descending Washington Center
04:27PM 38.0744 -78.4589 301° West 168 193 1,900 -900 Descending Washington Center
04:28PM 38.1117 -78.4683 349° North 125 144 1,200 -600 Descending Washington Center
04:29PM 38.1472 -78.4669 North 118 136 700 -540 Descending Washington Center
04:31PM 38.1333 -78.4500 90° East  Level FlightAware Approximate
04:38PM 38.1386 -78.4529 90° East  Level Estimated
04:39PM 38.1333 -78.4500 90° East  Level FlightAware Approximate
04:40PM 38.1386 -78.4529 90° East  Level Estimated
04:41PM 38.1333 -78.4500 90° East  Level FlightAware Approximate
04:42PM 38.1386 -78.4529 90° East  Level Estimated
04:43PM 38.1333 -78.4500 90° East  Level FlightAware Approximate
04:44PM 38.1386 -78.4529 90° East  Level Estimated
04:45PM 38.1333 -78.4500 90° East  Level FlightAware Approximate